sensor_id;sensor_type;location;lat;lon;timestamp;P1;durP1;ratioP1;P2;durP2;ratioP2
51495;SDS011;37572;52.094;4.870;2023-02-28T00:00:38;5.22;;;4.72;;
51495;SDS011;37572;52.094;4.870;2023-02-28T00:03:03;4.97;;;3.03;;
51495;SDS011;37572;52.094;4.870;2023-02-28T00:05:29;3.80;;;2.87;;
51495;SDS011;37572;52.094;4.870;2023-02-28T00:07:54;5.53;;;2.60;;
51495;SDS011;37572;52.094;4.870;2023-02-28T00:10:24;5.97;;;2.70;;
51495;SDS011;37572;52.094;4.870;2023-02-28T00:12:50;5.35;;;3.58;;
51495;SDS011;37572;52.094;4.870;2023-02-28T00:15:15;4.30;;;2.50;;
51495;SDS011;37572;52.094;4.870;2023-02-28T00:17:40;5.17;;;2.60;;
51495;SDS011;37572;52.094;4.870;2023-02-28T00:20:06;4.70;;;2.83;;
51495;SDS011;37572;52.094;4.870;2023-02-28T00:22:33;3.58;;;2.22;;
51495;SDS011;37572;52.094;4.870;2023-02-28T00:24:58;5.18;;;4.35;;
51495;SDS011;37572;52.094;4.870;2023-02-28T00:27:23;3.83;;;2.30;;
51495;SDS011;37572;52.094;4.870;2023-02-28T00:29:49;5.73;;;2.20;;
51495;SDS011;37572;52.094;4.870;2023-02-28T00:32:14;5.63;;;4.13;;
51495;SDS011;37572;52.094;4.870;2023-02-28T00:34:39;3.50;;;2.30;;
51495;SDS011;37572;52.094;4.870;2023-02-28T00:37:08;4.53;;;2.07;;
51495;SDS011;37572;52.094;4.870;2023-02-28T00:39:34;3.95;;;2.70;;
51495;SDS011;37572;52.094;4.870;2023-02-28T00:42:00;3.50;;;2.22;;
51495;SDS011;37572;52.094;4.870;2023-02-28T00:44:25;4.83;;;2.50;;
51495;SDS011;37572;52.094;4.870;2023-02-28T00:46:50;3.47;;;2.40;;
51495;SDS011;37572;52.094;4.870;2023-02-28T00:49:16;4.03;;;2.72;;
51495;SDS011;37572;52.094;4.870;2023-02-28T00:51:41;4.17;;;2.57;;
51495;SDS011;37572;52.094;4.870;2023-02-28T00:54:06;4.23;;;2.47;;
51495;SDS011;37572;52.094;4.870;2023-02-28T00:56:32;5.70;;;2.40;;
51495;SDS011;37572;52.094;4.870;2023-02-28T00:58:57;5.53;;;2.37;;
51495;SDS011;37572;52.094;4.870;2023-02-28T01:01:22;3.80;;;2.40;;
51495;SDS011;37572;52.094;4.870;2023-02-28T01:03:47;5.20;;;2.70;;
51495;SDS011;37572;52.094;4.870;2023-02-28T01:06:12;3.20;;;2.17;;
51495;SDS011;37572;52.094;4.870;2023-02-28T01:08:38;6.43;;;2.93;;
51495;SDS011;37572;52.094;4.870;2023-02-28T01:11:10;5.27;;;2.70;;
51495;SDS011;37572;52.094;4.870;2023-02-28T01:16:00;4.60;;;3.55;;
51495;SDS011;37572;52.094;4.870;2023-02-28T01:18:25;4.07;;;2.13;;
51495;SDS011;37572;52.094;4.870;2023-02-28T01:20:51;6.30;;;3.00;;
51495;SDS011;37572;52.094;4.870;2023-02-28T01:23:17;6.93;;;3.05;;
51495;SDS011;37572;52.094;4.870;2023-02-28T01:25:43;5.43;;;2.90;;
51495;SDS011;37572;52.094;4.870;2023-02-28T01:28:08;6.67;;;3.13;;
51495;SDS011;37572;52.094;4.870;2023-02-28T01:30:33;5.30;;;2.90;;
51495;SDS011;37572;52.094;4.870;2023-02-28T01:32:58;5.15;;;2.92;;
51495;SDS011;37572;52.094;4.870;2023-02-28T01:35:24;4.53;;;2.28;;
51495;SDS011;37572;52.094;4.870;2023-02-28T01:37:49;6.82;;;3.03;;
51495;SDS011;37572;52.094;4.870;2023-02-28T01:40:15;5.20;;;2.90;;
51495;SDS011;37572;52.094;4.870;2023-02-28T01:42:40;5.18;;;2.47;;
51495;SDS011;37572;52.094;4.870;2023-02-28T01:45:18;5.70;;;3.00;;
51495;SDS011;37572;52.094;4.870;2023-02-28T01:47:45;5.97;;;2.67;;
51495;SDS011;37572;52.094;4.870;2023-02-28T01:50:12;5.50;;;4.18;;
51495;SDS011;37572;52.094;4.870;2023-02-28T01:52:38;4.68;;;4.22;;
51495;SDS011;37572;52.094;4.870;2023-02-28T01:55:04;5.07;;;2.67;;
51495;SDS011;37572;52.094;4.870;2023-02-28T01:57:32;4.10;;;3.10;;
51495;SDS011;37572;52.094;4.870;2023-02-28T02:00:05;4.75;;;2.70;;
51495;SDS011;37572;52.094;4.870;2023-02-28T02:02:32;5.13;;;3.08;;
51495;SDS011;37572;52.094;4.870;2023-02-28T02:04:58;5.07;;;2.90;;
51495;SDS011;37572;52.094;4.870;2023-02-28T02:07:26;4.47;;;2.65;;
51495;SDS011;37572;52.094;4.870;2023-02-28T02:12:38;6.03;;;2.60;;
51495;SDS011;37572;52.094;4.870;2023-02-28T02:17:35;6.77;;;2.50;;
51495;SDS011;37572;52.094;4.870;2023-02-28T02:25:11;6.70;;;2.42;;
51495;SDS011;37572;52.094;4.870;2023-02-28T02:27:45;4.22;;;2.33;;
51495;SDS011;37572;52.094;4.870;2023-02-28T02:43:39;5.00;;;2.63;;
51495;SDS011;37572;52.094;4.870;2023-02-28T02:46:27;5.47;;;2.42;;
51495;SDS011;37572;52.094;4.870;2023-02-28T02:48:54;5.85;;;3.10;;
51495;SDS011;37572;52.094;4.870;2023-02-28T02:51:20;5.20;;;2.70;;
51495;SDS011;37572;52.094;4.870;2023-02-28T02:53:48;6.57;;;2.80;;
51495;SDS011;37572;52.094;4.870;2023-02-28T02:56:17;4.40;;;2.72;;
51495;SDS011;37572;52.094;4.870;2023-02-28T02:58:43;4.80;;;3.10;;
51495;SDS011;37572;52.094;4.870;2023-02-28T03:01:14;5.35;;;2.63;;
51495;SDS011;37572;52.094;4.870;2023-02-28T03:03:40;5.20;;;4.57;;
51495;SDS011;37572;52.094;4.870;2023-02-28T03:06:06;6.07;;;2.72;;
51495;SDS011;37572;52.094;4.870;2023-02-28T03:08:35;8.03;;;2.60;;
51495;SDS011;37572;52.094;4.870;2023-02-28T03:11:02;8.73;;;3.67;;
51495;SDS011;37572;52.094;4.870;2023-02-28T03:18:24;6.53;;;3.15;;
51495;SDS011;37572;52.094;4.870;2023-02-28T03:23:21;7.03;;;2.97;;
51495;SDS011;37572;52.094;4.870;2023-02-28T03:31:17;5.60;;;3.15;;
51495;SDS011;37572;52.094;4.870;2023-02-28T03:33:48;4.40;;;2.97;;
51495;SDS011;37572;52.094;4.870;2023-02-28T03:36:20;4.72;;;3.53;;
51495;SDS011;37572;52.094;4.870;2023-02-28T03:39:03;5.53;;;3.22;;
51495;SDS011;37572;52.094;4.870;2023-02-28T03:41:36;6.65;;;4.03;;
51495;SDS011;37572;52.094;4.870;2023-02-28T03:44:05;7.07;;;3.47;;
51495;SDS011;37572;52.094;4.870;2023-02-28T03:46:36;5.97;;;3.20;;
51495;SDS011;37572;52.094;4.870;2023-02-28T03:49:05;5.75;;;4.22;;
51495;SDS011;37572;52.094;4.870;2023-02-28T03:51:33;7.55;;;3.53;;
51495;SDS011;37572;52.094;4.870;2023-02-28T03:54:05;5.82;;;2.90;;
51495;SDS011;37572;52.094;4.870;2023-02-28T03:56:40;4.50;;;2.60;;
51495;SDS011;37572;52.094;4.870;2023-02-28T03:59:10;4.68;;;3.17;;
51495;SDS011;37572;52.094;4.870;2023-02-28T04:01:38;5.70;;;4.75;;
51495;SDS011;37572;52.094;4.870;2023-02-28T04:04:06;8.52;;;3.78;;
51495;SDS011;37572;52.094;4.870;2023-02-28T04:06:32;6.28;;;4.90;;
51495;SDS011;37572;52.094;4.870;2023-02-28T04:08:58;6.72;;;3.42;;
51495;SDS011;37572;52.094;4.870;2023-02-28T04:11:36;5.90;;;4.97;;
51495;SDS011;37572;52.094;4.870;2023-02-28T04:16:27;7.20;;;3.55;;
51495;SDS011;37572;52.094;4.870;2023-02-28T04:18:52;5.70;;;3.55;;
51495;SDS011;37572;52.094;4.870;2023-02-28T04:21:17;7.60;;;3.80;;
51495;SDS011;37572;52.094;4.870;2023-02-28T04:23:45;8.90;;;4.25;;
51495;SDS011;37572;52.094;4.870;2023-02-28T04:26:11;5.75;;;3.63;;
51495;SDS011;37572;52.094;4.870;2023-02-28T04:28:36;7.40;;;4.50;;
51495;SDS011;37572;52.094;4.870;2023-02-28T04:31:02;5.82;;;3.78;;
51495;SDS011;37572;52.094;4.870;2023-02-28T04:33:28;7.53;;;4.53;;
51495;SDS011;37572;52.094;4.870;2023-02-28T04:36:00;9.05;;;4.68;;
51495;SDS011;37572;52.094;4.870;2023-02-28T04:38:25;7.38;;;4.40;;
51495;SDS011;37572;52.094;4.870;2023-02-28T04:40:51;7.60;;;4.10;;
51495;SDS011;37572;52.094;4.870;2023-02-28T04:43:16;10.10;;;5.87;;
51495;SDS011;37572;52.094;4.870;2023-02-28T04:45:41;6.90;;;3.63;;
51495;SDS011;37572;52.094;4.870;2023-02-28T04:48:06;8.80;;;6.73;;
51495;SDS011;37572;52.094;4.870;2023-02-28T04:50:31;7.83;;;4.50;;
51495;SDS011;37572;52.094;4.870;2023-02-28T04:52:57;7.83;;;4.03;;
51495;SDS011;37572;52.094;4.870;2023-02-28T04:55:22;8.63;;;5.13;;
51495;SDS011;37572;52.094;4.870;2023-02-28T04:57:47;8.43;;;5.23;;
51495;SDS011;37572;52.094;4.870;2023-02-28T05:00:13;7.53;;;4.70;;
51495;SDS011;37572;52.094;4.870;2023-02-28T05:02:41;9.65;;;6.28;;
51495;SDS011;37572;52.094;4.870;2023-02-28T05:05:06;7.20;;;4.40;;
51495;SDS011;37572;52.094;4.870;2023-02-28T05:07:32;7.53;;;4.33;;
51495;SDS011;37572;52.094;4.870;2023-02-28T05:09:57;8.50;;;4.77;;
51495;SDS011;37572;52.094;4.870;2023-02-28T05:12:22;7.30;;;4.97;;
51495;SDS011;37572;52.094;4.870;2023-02-28T05:14:47;8.90;;;4.70;;
51495;SDS011;37572;52.094;4.870;2023-02-28T05:17:12;6.10;;;4.10;;
51495;SDS011;37572;52.094;4.870;2023-02-28T05:19:37;6.47;;;4.77;;
51495;SDS011;37572;52.094;4.870;2023-02-28T05:22:03;7.73;;;6.70;;
51495;SDS011;37572;52.094;4.870;2023-02-28T05:24:28;10.10;;;5.20;;
51495;SDS011;37572;52.094;4.870;2023-02-28T05:26:54;9.20;;;5.50;;
51495;SDS011;37572;52.094;4.870;2023-02-28T05:29:19;9.45;;;5.57;;
51495;SDS011;37572;52.094;4.870;2023-02-28T05:31:44;9.03;;;5.63;;
51495;SDS011;37572;52.094;4.870;2023-02-28T05:34:10;9.43;;;6.10;;
51495;SDS011;37572;52.094;4.870;2023-02-28T05:36:37;9.40;;;5.95;;
51495;SDS011;37572;52.094;4.870;2023-02-28T05:39:03;8.07;;;5.15;;
51495;SDS011;37572;52.094;4.870;2023-02-28T05:41:29;9.68;;;4.90;;
51495;SDS011;37572;52.094;4.870;2023-02-28T05:43:54;6.60;;;4.90;;
51495;SDS011;37572;52.094;4.870;2023-02-28T05:46:20;9.10;;;4.23;;
51495;SDS011;37572;52.094;4.870;2023-02-28T05:48:46;6.50;;;4.03;;
51495;SDS011;37572;52.094;4.870;2023-02-28T05:51:11;6.35;;;4.43;;
51495;SDS011;37572;52.094;4.870;2023-02-28T05:53:36;8.57;;;4.53;;
51495;SDS011;37572;52.094;4.870;2023-02-28T05:56:02;6.93;;;4.70;;
51495;SDS011;37572;52.094;4.870;2023-02-28T05:58:27;4.22;;;3.75;;
51495;SDS011;37572;52.094;4.870;2023-02-28T06:00:56;7.95;;;6.20;;
51495;SDS011;37572;52.094;4.870;2023-02-28T06:03:21;6.63;;;4.22;;
51495;SDS011;37572;52.094;4.870;2023-02-28T06:05:46;5.40;;;3.73;;
51495;SDS011;37572;52.094;4.870;2023-02-28T06:08:12;6.47;;;3.58;;
51495;SDS011;37572;52.094;4.870;2023-02-28T06:10:37;5.37;;;3.40;;
51495;SDS011;37572;52.094;4.870;2023-02-28T06:13:02;4.53;;;4.10;;
51495;SDS011;37572;52.094;4.870;2023-02-28T06:15:28;4.72;;;3.95;;
51495;SDS011;37572;52.094;4.870;2023-02-28T06:17:53;6.00;;;3.70;;
51495;SDS011;37572;52.094;4.870;2023-02-28T06:20:19;7.70;;;6.17;;
51495;SDS011;37572;52.094;4.870;2023-02-28T06:22:44;7.63;;;3.93;;
51495;SDS011;37572;52.094;4.870;2023-02-28T06:25:09;5.97;;;3.90;;
51495;SDS011;37572;52.094;4.870;2023-02-28T06:27:34;5.77;;;3.93;;
51495;SDS011;37572;52.094;4.870;2023-02-28T06:29:59;5.13;;;4.03;;
51495;SDS011;37572;52.094;4.870;2023-02-28T06:32:24;7.43;;;5.03;;
51495;SDS011;37572;52.094;4.870;2023-02-28T06:34:50;6.13;;;5.53;;
51495;SDS011;37572;52.094;4.870;2023-02-28T06:37:15;7.10;;;5.50;;
51495;SDS011;37572;52.094;4.870;2023-02-28T06:39:40;8.20;;;4.90;;
51495;SDS011;37572;52.094;4.870;2023-02-28T06:44:31;9.13;;;5.72;;
51495;SDS011;37572;52.094;4.870;2023-02-28T06:47:00;7.35;;;4.50;;
51495;SDS011;37572;52.094;4.870;2023-02-28T06:49:26;8.63;;;5.57;;
51495;SDS011;37572;52.094;4.870;2023-02-28T06:54:17;11.25;;;5.07;;
51495;SDS011;37572;52.094;4.870;2023-02-28T06:56:42;7.37;;;5.40;;
51495;SDS011;37572;52.094;4.870;2023-02-28T06:59:07;7.30;;;5.60;;
51495;SDS011;37572;52.094;4.870;2023-02-28T07:03:58;8.97;;;5.83;;
51495;SDS011;37572;52.094;4.870;2023-02-28T07:06:25;8.57;;;5.72;;
51495;SDS011;37572;52.094;4.870;2023-02-28T07:11:15;8.52;;;6.43;;
51495;SDS011;37572;52.094;4.870;2023-02-28T07:13:41;10.23;;;6.57;;
51495;SDS011;37572;52.094;4.870;2023-02-28T07:16:07;11.57;;;6.20;;
51495;SDS011;37572;52.094;4.870;2023-02-28T07:18:33;10.73;;;6.70;;
51495;SDS011;37572;52.094;4.870;2023-02-28T07:23:24;8.40;;;5.97;;
51495;SDS011;37572;52.094;4.870;2023-02-28T07:25:49;9.63;;;6.53;;
51495;SDS011;37572;52.094;4.870;2023-02-28T07:28:15;10.13;;;6.22;;
51495;SDS011;37572;52.094;4.870;2023-02-28T07:30:40;10.13;;;6.67;;
51495;SDS011;37572;52.094;4.870;2023-02-28T07:33:05;9.60;;;5.93;;
51495;SDS011;37572;52.094;4.870;2023-02-28T07:35:31;8.63;;;6.20;;
51495;SDS011;37572;52.094;4.870;2023-02-28T07:37:59;8.70;;;6.17;;
51495;SDS011;37572;52.094;4.870;2023-02-28T07:40:24;11.25;;;8.00;;
51495;SDS011;37572;52.094;4.870;2023-02-28T07:45:15;9.07;;;6.55;;
51495;SDS011;37572;52.094;4.870;2023-02-28T07:47:41;9.67;;;6.50;;
51495;SDS011;37572;52.094;4.870;2023-02-28T07:50:07;9.30;;;5.35;;
51495;SDS011;37572;52.094;4.870;2023-02-28T07:52:33;9.85;;;6.25;;
51495;SDS011;37572;52.094;4.870;2023-02-28T07:57:23;8.45;;;6.40;;
51495;SDS011;37572;52.094;4.870;2023-02-28T07:59:48;8.50;;;5.70;;
51495;SDS011;37572;52.094;4.870;2023-02-28T08:02:14;7.93;;;5.83;;
51495;SDS011;37572;52.094;4.870;2023-02-28T08:04:40;9.30;;;6.65;;
51495;SDS011;37572;52.094;4.870;2023-02-28T08:07:05;9.52;;;5.50;;
51495;SDS011;37572;52.094;4.870;2023-02-28T08:09:30;10.07;;;6.53;;
51495;SDS011;37572;52.094;4.870;2023-02-28T08:11:56;9.63;;;6.70;;
51495;SDS011;37572;52.094;4.870;2023-02-28T08:14:21;11.03;;;6.93;;
51495;SDS011;37572;52.094;4.870;2023-02-28T08:16:46;9.50;;;6.80;;
51495;SDS011;37572;52.094;4.870;2023-02-28T08:19:11;8.57;;;6.13;;
51495;SDS011;37572;52.094;4.870;2023-02-28T08:21:36;9.23;;;6.90;;
51495;SDS011;37572;52.094;4.870;2023-02-28T08:24:02;8.90;;;6.63;;
51495;SDS011;37572;52.094;4.870;2023-02-28T08:26:27;9.27;;;6.57;;
51495;SDS011;37572;52.094;4.870;2023-02-28T08:28:52;9.67;;;6.73;;
51495;SDS011;37572;52.094;4.870;2023-02-28T08:31:17;12.87;;;7.80;;
51495;SDS011;37572;52.094;4.870;2023-02-28T08:33:43;9.95;;;8.95;;
51495;SDS011;37572;52.094;4.870;2023-02-28T08:36:09;10.60;;;7.50;;
51495;SDS011;37572;52.094;4.870;2023-02-28T08:38:35;9.57;;;6.95;;
51495;SDS011;37572;52.094;4.870;2023-02-28T08:41:01;10.45;;;7.15;;
51495;SDS011;37572;52.094;4.870;2023-02-28T08:43:27;9.15;;;6.50;;
51495;SDS011;37572;52.094;4.870;2023-02-28T08:48:18;10.75;;;6.63;;
51495;SDS011;37572;52.094;4.870;2023-02-28T08:50:43;9.70;;;6.95;;
51495;SDS011;37572;52.094;4.870;2023-02-28T08:53:08;11.47;;;7.30;;
51495;SDS011;37572;52.094;4.870;2023-02-28T08:55:33;9.87;;;6.87;;
51495;SDS011;37572;52.094;4.870;2023-02-28T08:57:58;10.03;;;6.90;;
51495;SDS011;37572;52.094;4.870;2023-02-28T09:00:24;10.13;;;7.30;;
51495;SDS011;37572;52.094;4.870;2023-02-28T09:02:49;11.30;;;9.73;;
51495;SDS011;37572;52.094;4.870;2023-02-28T09:05:14;11.00;;;6.90;;
51495;SDS011;37572;52.094;4.870;2023-02-28T09:07:39;11.23;;;7.70;;
51495;SDS011;37572;52.094;4.870;2023-02-28T09:10:05;10.43;;;6.53;;
51495;SDS011;37572;52.094;4.870;2023-02-28T09:12:32;10.70;;;8.98;;
51495;SDS011;37572;52.094;4.870;2023-02-28T09:14:57;9.75;;;6.82;;
51495;SDS011;37572;52.094;4.870;2023-02-28T09:17:22;10.63;;;7.00;;
51495;SDS011;37572;52.094;4.870;2023-02-28T09:19:48;10.50;;;6.57;;
51495;SDS011;37572;52.094;4.870;2023-02-28T09:22:14;11.50;;;7.25;;
51495;SDS011;37572;52.094;4.870;2023-02-28T09:24:39;11.33;;;6.40;;
51495;SDS011;37572;52.094;4.870;2023-02-28T09:27:04;10.53;;;7.13;;
51495;SDS011;37572;52.094;4.870;2023-02-28T09:29:30;10.60;;;7.22;;
51495;SDS011;37572;52.094;4.870;2023-02-28T09:31:56;10.65;;;7.65;;
51495;SDS011;37572;52.094;4.870;2023-02-28T09:34:23;11.93;;;8.07;;
51495;SDS011;37572;52.094;4.870;2023-02-28T09:36:49;11.77;;;7.40;;
51495;SDS011;37572;52.094;4.870;2023-02-28T09:39:15;11.20;;;7.35;;
51495;SDS011;37572;52.094;4.870;2023-02-28T09:41:42;10.82;;;7.18;;
51495;SDS011;37572;52.094;4.870;2023-02-28T09:44:31;10.93;;;6.43;;
51495;SDS011;37572;52.094;4.870;2023-02-28T09:47:03;12.07;;;6.85;;
51495;SDS011;37572;52.094;4.870;2023-02-28T09:49:43;10.10;;;6.80;;
51495;SDS011;37572;52.094;4.870;2023-02-28T09:52:18;12.57;;;7.07;;
51495;SDS011;37572;52.094;4.870;2023-02-28T09:54:44;10.52;;;6.20;;
51495;SDS011;37572;52.094;4.870;2023-02-28T10:00:15;10.65;;;6.53;;
51495;SDS011;37572;52.094;4.870;2023-02-28T10:02:40;8.80;;;6.03;;
51495;SDS011;37572;52.094;4.870;2023-02-28T10:05:08;7.80;;;5.18;;
51495;SDS011;37572;52.094;4.870;2023-02-28T10:10:04;4.78;;;3.75;;
51495;SDS011;37572;52.094;4.870;2023-02-28T10:12:32;4.55;;;3.00;;
51495;SDS011;37572;52.094;4.870;2023-02-28T10:14:58;3.80;;;3.20;;
51495;SDS011;37572;52.094;4.870;2023-02-28T10:17:25;3.72;;;3.03;;
51495;SDS011;37572;52.094;4.870;2023-02-28T10:22:20;4.65;;;3.58;;
51495;SDS011;37572;52.094;4.870;2023-02-28T10:24:56;3.80;;;3.13;;
51495;SDS011;37572;52.094;4.870;2023-02-28T10:27:26;6.18;;;3.60;;
51495;SDS011;37572;52.094;4.870;2023-02-28T10:29:54;4.75;;;3.25;;
51495;SDS011;37572;52.094;4.870;2023-02-28T10:32:23;4.68;;;3.35;;
51495;SDS011;37572;52.094;4.870;2023-02-28T10:34:52;4.07;;;2.88;;
51495;SDS011;37572;52.094;4.870;2023-02-28T10:37:20;5.30;;;3.22;;
51495;SDS011;37572;52.094;4.870;2023-02-28T10:39:46;5.32;;;3.58;;
51495;SDS011;37572;52.094;4.870;2023-02-28T10:42:19;4.68;;;3.00;;
51495;SDS011;37572;52.094;4.870;2023-02-28T10:44:44;3.60;;;2.63;;
51495;SDS011;37572;52.094;4.870;2023-02-28T10:47:16;3.37;;;2.80;;
51495;SDS011;37572;52.094;4.870;2023-02-28T10:49:48;2.50;;;2.10;;
51495;SDS011;37572;52.094;4.870;2023-02-28T10:52:14;4.07;;;2.35;;
51495;SDS011;37572;52.094;4.870;2023-02-28T10:55:13;3.85;;;2.30;;
51495;SDS011;37572;52.094;4.870;2023-02-28T10:57:38;3.17;;;1.90;;
51495;SDS011;37572;52.094;4.870;2023-02-28T11:00:23;2.97;;;2.63;;
51495;SDS011;37572;52.094;4.870;2023-02-28T11:02:50;3.15;;;2.60;;
51495;SDS011;37572;52.094;4.870;2023-02-28T11:05:31;4.07;;;3.67;;
51495;SDS011;37572;52.094;4.870;2023-02-28T11:08:13;2.75;;;2.10;;
51495;SDS011;37572;52.094;4.870;2023-02-28T11:10:39;3.60;;;2.20;;
51495;SDS011;37572;52.094;4.870;2023-02-28T11:13:04;3.00;;;2.07;;
51495;SDS011;37572;52.094;4.870;2023-02-28T11:15:30;2.75;;;2.17;;
51495;SDS011;37572;52.094;4.870;2023-02-28T11:17:58;3.88;;;2.58;;
51495;SDS011;37572;52.094;4.870;2023-02-28T11:20:25;3.85;;;2.47;;
51495;SDS011;37572;52.094;4.870;2023-02-28T11:22:51;4.32;;;2.78;;
51495;SDS011;37572;52.094;4.870;2023-02-28T11:25:19;4.15;;;2.83;;
51495;SDS011;37572;52.094;4.870;2023-02-28T11:27:50;6.15;;;2.70;;
51495;SDS011;37572;52.094;4.870;2023-02-28T11:32:52;4.65;;;2.40;;
51495;SDS011;37572;52.094;4.870;2023-02-28T11:35:21;3.05;;;2.13;;
51495;SDS011;37572;52.094;4.870;2023-02-28T11:37:48;4.85;;;2.67;;
51495;SDS011;37572;52.094;4.870;2023-02-28T11:40:17;3.47;;;2.10;;
51495;SDS011;37572;52.094;4.870;2023-02-28T11:45:22;3.80;;;2.72;;
51495;SDS011;37572;52.094;4.870;2023-02-28T11:48:01;3.65;;;2.50;;
51495;SDS011;37572;52.094;4.870;2023-02-28T11:53:01;3.33;;;2.30;;
51495;SDS011;37572;52.094;4.870;2023-02-28T12:00:28;2.78;;;2.13;;
51495;SDS011;37572;52.094;4.870;2023-02-28T12:05:41;2.95;;;1.98;;
51495;SDS011;37572;52.094;4.870;2023-02-28T12:10:38;2.92;;;2.03;;
51495;SDS011;37572;52.094;4.870;2023-02-28T12:20:54;3.25;;;2.08;;
51495;SDS011;37572;52.094;4.870;2023-02-28T12:23:25;3.20;;;2.13;;
51495;SDS011;37572;52.094;4.870;2023-02-28T12:26:01;2.50;;;1.83;;
51495;SDS011;37572;52.094;4.870;2023-02-28T12:28:28;2.50;;;1.83;;
51495;SDS011;37572;52.094;4.870;2023-02-28T12:30:58;2.80;;;2.30;;
51495;SDS011;37572;52.094;4.870;2023-02-28T12:33:25;2.90;;;1.80;;
51495;SDS011;37572;52.094;4.870;2023-02-28T12:35:58;3.95;;;2.05;;
51495;SDS011;37572;52.094;4.870;2023-02-28T12:38:28;3.25;;;1.80;;
51495;SDS011;37572;52.094;4.870;2023-02-28T12:41:00;3.85;;;1.77;;
51495;SDS011;37572;52.094;4.870;2023-02-28T12:43:29;2.85;;;1.52;;
51495;SDS011;37572;52.094;4.870;2023-02-28T12:45:56;2.33;;;1.50;;
51495;SDS011;37572;52.094;4.870;2023-02-28T12:48:29;3.05;;;1.70;;
51495;SDS011;37572;52.094;4.870;2023-02-28T12:50:56;2.50;;;1.77;;
51495;SDS011;37572;52.094;4.870;2023-02-28T12:53:27;3.65;;;1.65;;
51495;SDS011;37572;52.094;4.870;2023-02-28T13:11:31;3.30;;;1.63;;
51495;SDS011;37572;52.094;4.870;2023-02-28T13:13:57;3.65;;;1.60;;
51495;SDS011;37572;52.094;4.870;2023-02-28T13:16:22;2.78;;;1.40;;
51495;SDS011;37572;52.094;4.870;2023-02-28T13:18:50;3.25;;;1.70;;
51495;SDS011;37572;52.094;4.870;2023-02-28T13:21:24;2.97;;;1.58;;
51495;SDS011;37572;52.094;4.870;2023-02-28T13:26:20;2.60;;;1.83;;
51495;SDS011;37572;52.094;4.870;2023-02-28T13:31:14;3.13;;;2.00;;
51495;SDS011;37572;52.094;4.870;2023-02-28T13:38:40;2.88;;;1.90;;
51495;SDS011;37572;52.094;4.870;2023-02-28T13:41:36;2.97;;;2.05;;
51495;SDS011;37572;52.094;4.870;2023-02-28T13:44:11;2.72;;;2.05;;
51495;SDS011;37572;52.094;4.870;2023-02-28T13:51:48;2.65;;;2.35;;
51495;SDS011;37572;52.094;4.870;2023-02-28T13:54:19;4.30;;;2.30;;
51495;SDS011;37572;52.094;4.870;2023-02-28T13:57:00;2.92;;;2.13;;
51495;SDS011;37572;52.094;4.870;2023-02-28T14:07:06;4.22;;;2.03;;
51495;SDS011;37572;52.094;4.870;2023-02-28T14:09:35;3.00;;;2.00;;
51495;SDS011;37572;52.094;4.870;2023-02-28T14:17:13;2.92;;;2.28;;
51495;SDS011;37572;52.094;4.870;2023-02-28T14:19:39;2.67;;;1.77;;
51495;SDS011;37572;52.094;4.870;2023-02-28T14:37:52;4.13;;;2.20;;
51495;SDS011;37572;52.094;4.870;2023-02-28T14:42:47;3.47;;;2.30;;
51495;SDS011;37572;52.094;4.870;2023-02-28T14:45:19;3.10;;;2.00;;
51495;SDS011;37572;52.094;4.870;2023-02-28T14:47:45;4.03;;;2.17;;
51495;SDS011;37572;52.094;4.870;2023-02-28T14:50:17;2.85;;;2.13;;
51495;SDS011;37572;52.094;4.870;2023-02-28T14:52:42;2.97;;;2.25;;
51495;SDS011;37572;52.094;4.870;2023-02-28T14:55:14;3.33;;;2.42;;
51495;SDS011;37572;52.094;4.870;2023-02-28T14:57:42;3.28;;;2.22;;
51495;SDS011;37572;52.094;4.870;2023-02-28T15:00:16;3.45;;;2.67;;
51495;SDS011;37572;52.094;4.870;2023-02-28T15:02:45;3.35;;;2.22;;
51495;SDS011;37572;52.094;4.870;2023-02-28T15:07:41;3.40;;;2.28;;
51495;SDS011;37572;52.094;4.870;2023-02-28T15:10:08;3.13;;;2.20;;
51495;SDS011;37572;52.094;4.870;2023-02-28T15:12:34;4.10;;;2.33;;
51495;SDS011;37572;52.094;4.870;2023-02-28T15:14:59;3.70;;;2.40;;
51495;SDS011;37572;52.094;4.870;2023-02-28T15:17:24;5.47;;;2.90;;
51495;SDS011;37572;52.094;4.870;2023-02-28T15:19:50;4.43;;;3.10;;
51495;SDS011;37572;52.094;4.870;2023-02-28T15:22:19;5.95;;;4.93;;
51495;SDS011;37572;52.094;4.870;2023-02-28T15:24:49;6.10;;;3.55;;
51495;SDS011;37572;52.094;4.870;2023-02-28T15:27:16;4.45;;;3.38;;
51495;SDS011;37572;52.094;4.870;2023-02-28T15:29:47;5.13;;;3.25;;
51495;SDS011;37572;52.094;4.870;2023-02-28T15:32:30;4.68;;;3.30;;
51495;SDS011;37572;52.094;4.870;2023-02-28T15:34:56;4.53;;;3.00;;
51495;SDS011;37572;52.094;4.870;2023-02-28T15:43:14;4.60;;;3.60;;
51495;SDS011;37572;52.094;4.870;2023-02-28T15:45:56;4.50;;;3.63;;
51495;SDS011;37572;52.094;4.870;2023-02-28T15:48:23;5.50;;;3.60;;
51495;SDS011;37572;52.094;4.870;2023-02-28T15:50:54;5.63;;;3.67;;
51495;SDS011;37572;52.094;4.870;2023-02-28T15:53:22;4.65;;;3.67;;
51495;SDS011;37572;52.094;4.870;2023-02-28T15:55:52;5.78;;;3.58;;
51495;SDS011;37572;52.094;4.870;2023-02-28T15:58:18;4.43;;;3.38;;
51495;SDS011;37572;52.094;4.870;2023-02-28T16:00:44;7.68;;;3.60;;
51495;SDS011;37572;52.094;4.870;2023-02-28T16:03:26;4.45;;;3.50;;
51495;SDS011;37572;52.094;4.870;2023-02-28T16:06:08;5.00;;;4.22;;
51495;SDS011;37572;52.094;4.870;2023-02-28T16:08:33;6.78;;;4.00;;
51495;SDS011;37572;52.094;4.870;2023-02-28T16:10:59;5.40;;;3.90;;
51495;SDS011;37572;52.094;4.870;2023-02-28T16:13:24;5.53;;;4.00;;
51495;SDS011;37572;52.094;4.870;2023-02-28T16:15:49;5.60;;;3.87;;
51495;SDS011;37572;52.094;4.870;2023-02-28T16:18:16;5.15;;;3.55;;
51495;SDS011;37572;52.094;4.870;2023-02-28T16:20:41;5.07;;;3.72;;
51495;SDS011;37572;52.094;4.870;2023-02-28T16:23:09;5.35;;;3.90;;
51495;SDS011;37572;52.094;4.870;2023-02-28T16:25:41;4.97;;;3.87;;
51495;SDS011;37572;52.094;4.870;2023-02-28T16:28:12;6.07;;;4.00;;
51495;SDS011;37572;52.094;4.870;2023-02-28T16:30:40;5.85;;;4.22;;
51495;SDS011;37572;52.094;4.870;2023-02-28T16:33:07;4.97;;;3.80;;
51495;SDS011;37572;52.094;4.870;2023-02-28T16:35:32;5.68;;;3.92;;
51495;SDS011;37572;52.094;4.870;2023-02-28T16:37:58;5.33;;;4.03;;
51495;SDS011;37572;52.094;4.870;2023-02-28T16:40:24;6.57;;;4.30;;
51495;SDS011;37572;52.094;4.870;2023-02-28T16:42:51;4.53;;;3.78;;
51495;SDS011;37572;52.094;4.870;2023-02-28T16:45:18;6.90;;;6.28;;
51495;SDS011;37572;52.094;4.870;2023-02-28T16:47:44;4.28;;;3.72;;
51495;SDS011;37572;52.094;4.870;2023-02-28T16:50:13;5.22;;;3.65;;
51495;SDS011;37572;52.094;4.870;2023-02-28T16:52:39;6.25;;;3.88;;
51495;SDS011;37572;52.094;4.870;2023-02-28T16:55:04;5.37;;;4.73;;
51495;SDS011;37572;52.094;4.870;2023-02-28T16:57:29;4.65;;;3.75;;
51495;SDS011;37572;52.094;4.870;2023-02-28T16:59:55;5.83;;;3.77;;
51495;SDS011;37572;52.094;4.870;2023-02-28T17:02:20;5.20;;;3.80;;
51495;SDS011;37572;52.094;4.870;2023-02-28T17:04:45;6.97;;;4.03;;
51495;SDS011;37572;52.094;4.870;2023-02-28T17:07:11;3.80;;;3.30;;
51495;SDS011;37572;52.094;4.870;2023-02-28T17:09:37;6.78;;;4.32;;
51495;SDS011;37572;52.094;4.870;2023-02-28T17:12:02;4.75;;;3.88;;
51495;SDS011;37572;52.094;4.870;2023-02-28T17:14:28;5.10;;;3.67;;
51495;SDS011;37572;52.094;4.870;2023-02-28T17:16:53;4.57;;;3.63;;
51495;SDS011;37572;52.094;4.870;2023-02-28T17:19:18;6.20;;;4.10;;
51495;SDS011;37572;52.094;4.870;2023-02-28T17:21:44;5.65;;;4.15;;
51495;SDS011;37572;52.094;4.870;2023-02-28T17:24:09;5.40;;;4.78;;
51495;SDS011;37572;52.094;4.870;2023-02-28T17:26:37;8.52;;;4.63;;
51495;SDS011;37572;52.094;4.870;2023-02-28T17:29:02;6.70;;;4.30;;
51495;SDS011;37572;52.094;4.870;2023-02-28T17:31:27;7.10;;;4.63;;